createdAt,value
2022-09-24T00:00:27.264Z,57.88
2022-09-24T00:05:43.896Z,58.02
2022-09-24T00:10:36.846Z,58.19
2022-09-24T00:15:36.780Z,58.30
2022-09-24T00:20:36.689Z,58.39
2022-09-24T00:25:36.581Z,58.47
2022-09-24T00:30:37.841Z,58.54
2022-09-24T00:35:37.988Z,58.61
2022-09-24T00:40:36.459Z,58.70
2022-09-24T00:45:36.348Z,58.80
2022-09-24T00:50:36.303Z,58.92
2022-09-24T00:55:36.237Z,58.99
2022-09-24T01:00:36.215Z,59.11
2022-09-24T01:05:36.157Z,59.19
2022-09-24T01:10:35.990Z,59.26
2022-09-24T01:15:35.951Z,59.33
2022-09-24T01:20:35.867Z,59.40
2022-09-24T01:25:35.790Z,59.46
2022-09-24T01:30:35.776Z,59.55
2022-09-24T01:35:35.721Z,59.65
2022-09-24T01:40:35.626Z,59.74
2022-09-24T01:45:36.508Z,59.77
2022-09-24T01:50:35.640Z,59.83
2022-09-24T01:55:35.405Z,59.86
2022-09-24T02:00:35.320Z,59.90
2022-09-24T02:05:35.253Z,60.02
2022-09-24T02:10:35.174Z,60.14
2022-09-24T02:15:35.130Z,60.21
2022-09-24T02:20:35.047Z,60.31
2022-09-24T02:25:34.978Z,60.39
2022-09-24T02:30:34.927Z,60.43
2022-09-24T02:35:34.869Z,60.56
2022-09-24T02:40:34.831Z,60.68
2022-09-24T02:45:34.728Z,60.76
2022-09-24T02:50:34.652Z,60.83
2022-09-24T02:55:34.590Z,60.89
2022-09-24T03:00:34.526Z,60.95
2022-09-24T03:05:34.470Z,60.99
2022-09-24T03:10:35.193Z,61.04
2022-09-24T03:15:34.326Z,61.10
2022-09-24T03:20:34.252Z,61.16
2022-09-24T03:25:34.182Z,61.20
2022-09-24T03:30:34.131Z,61.24
2022-09-24T03:35:34.043Z,61.32
2022-09-24T03:40:34.027Z,61.36
2022-09-24T03:45:33.947Z,61.41
2022-09-24T03:50:33.858Z,61.46
2022-09-24T03:55:33.784Z,61.51
2022-09-24T04:00:36.419Z,61.55
2022-09-24T04:05:34.659Z,61.63
2022-09-24T04:10:33.580Z,61.65
2022-09-24T04:15:48.159Z,61.67
2022-09-24T04:20:40.491Z,61.71
2022-09-24T04:25:40.433Z,61.77
2022-09-24T04:30:41.446Z,61.78
2022-09-24T04:35:40.248Z,61.78
2022-09-24T04:40:40.297Z,61.80
2022-09-24T04:45:40.178Z,61.84
2022-09-24T04:50:44.985Z,61.89
2022-09-24T04:55:41.022Z,61.95
2022-09-24T05:00:39.972Z,62.06
2022-09-24T05:05:39.887Z,62.15
2022-09-24T05:10:39.792Z,62.21
2022-09-24T05:15:42.996Z,62.27
2022-09-24T05:20:39.670Z,62.27
2022-09-24T05:25:39.602Z,62.32
2022-09-24T05:30:39.560Z,62.33
2022-09-24T05:35:39.499Z,62.32
2022-09-24T05:40:39.574Z,62.29
2022-09-24T05:45:39.340Z,62.24
2022-09-24T05:50:41.010Z,62.18
2022-09-24T05:55:39.312Z,62.14
2022-09-24T06:00:39.133Z,62.15
2022-09-24T06:05:39.093Z,62.16
2022-09-24T06:10:39.014Z,62.20
2022-09-24T06:15:38.959Z,62.14
2022-09-24T06:20:38.879Z,62.05
2022-09-24T06:25:38.807Z,61.95
2022-09-24T06:30:38.750Z,61.84
2022-09-24T06:35:38.672Z,61.72
2022-09-24T06:40:38.718Z,61.61
2022-09-24T06:45:38.533Z,61.39
2022-09-24T06:50:38.548Z,61.17
2022-09-24T06:55:38.413Z,61.18
2022-09-24T07:00:38.412Z,61.13
2022-09-24T07:05:43.238Z,61.15
2022-09-24T07:10:39.193Z,61.18
2022-09-24T07:15:38.266Z,61.27
2022-09-24T07:20:38.084Z,61.14
2022-09-24T07:25:38.001Z,60.80
2022-09-24T07:30:37.966Z,60.50
2022-09-24T07:35:37.839Z,60.27
2022-09-24T07:40:37.903Z,60.06
2022-09-24T07:45:37.746Z,59.82
2022-09-24T07:50:37.710Z,59.63
2022-09-24T07:55:37.823Z,59.39
2022-09-24T08:00:37.570Z,59.01
2022-09-24T08:05:37.456Z,58.55
2022-09-24T08:10:37.611Z,57.54
2022-09-24T08:15:37.380Z,55.29
2022-09-24T08:20:37.300Z,52.31
2022-09-24T08:25:37.202Z,49.71
2022-09-24T08:30:37.115Z,46.91
2022-09-24T08:35:37.048Z,43.64
2022-09-24T08:40:37.061Z,40.99
2022-09-24T08:45:36.920Z,38.31
2022-09-24T08:50:36.873Z,39.13
2022-09-24T08:55:36.790Z,43.81
2022-09-24T09:00:36.697Z,46.14
2022-09-24T09:05:38.483Z,46.89
2022-09-24T09:10:36.612Z,44.78
2022-09-24T09:15:36.608Z,42.82
2022-09-24T09:20:36.457Z,42.72
2022-09-24T09:25:37.323Z,38.52
2022-09-24T09:30:37.627Z,37.25
2022-09-24T09:35:37.897Z,35.51
2022-09-24T09:40:36.624Z,31.91
2022-09-24T09:45:38.230Z,35.50
2022-09-24T09:50:36.042Z,37.77
2022-09-24T09:55:36.034Z,35.90
2022-09-24T10:00:35.894Z,37.81
2022-09-24T10:05:35.850Z,37.72
2022-09-24T10:10:35.792Z,37.12
2022-09-24T10:15:37.423Z,32.51
2022-09-24T10:20:35.650Z,36.07
2022-09-24T10:25:35.576Z,38.74
2022-09-24T10:30:35.528Z,41.05
2022-09-24T10:35:35.448Z,43.05
2022-09-24T10:40:35.499Z,43.89
2022-09-24T10:45:35.314Z,44.47
2022-09-24T10:50:35.259Z,45.05
2022-09-24T10:55:35.189Z,45.48
2022-09-24T11:00:35.657Z,45.84
2022-09-24T11:05:35.067Z,45.83
2022-09-24T11:10:34.927Z,45.31
2022-09-24T11:15:35.103Z,45.50
2022-09-24T11:20:34.851Z,45.57
2022-09-24T11:25:34.792Z,45.68
2022-09-24T11:30:34.703Z,45.68
2022-09-24T11:35:34.698Z,46.33
2022-09-24T11:40:34.611Z,46.97
2022-09-24T11:45:34.502Z,47.40
2022-09-24T11:50:34.440Z,47.18
2022-09-24T11:55:34.427Z,46.63
2022-09-24T12:00:34.315Z,46.39
2022-09-24T12:05:34.228Z,46.94
2022-09-24T12:10:34.157Z,47.29
2022-09-24T12:15:34.097Z,47.29
2022-09-24T12:20:34.129Z,46.99
2022-09-24T12:25:33.951Z,44.44
2022-09-24T12:30:33.960Z,42.53
2022-09-24T12:35:33.810Z,43.95
2022-09-24T12:40:33.867Z,45.69
2022-09-24T12:45:33.663Z,46.22
2022-09-24T12:50:33.634Z,46.51
2022-09-24T12:55:33.547Z,46.79
2022-09-24T13:00:34.678Z,47.06
2022-09-24T13:05:33.410Z,47.68
2022-09-24T13:10:33.350Z,48.15
2022-09-24T13:15:33.402Z,48.67
2022-09-24T13:20:33.215Z,49.07
2022-09-24T13:25:33.153Z,49.57
2022-09-24T13:30:33.088Z,49.91
2022-09-24T13:35:32.993Z,49.99
2022-09-24T13:40:33.081Z,49.58
2022-09-24T13:45:32.880Z,49.40
2022-09-24T13:50:32.946Z,49.76
2022-09-24T13:55:33.082Z,50.04
2022-09-24T14:00:32.664Z,50.36
2022-09-24T14:05:32.675Z,50.67
2022-09-24T14:10:32.628Z,50.88
2022-09-24T14:15:32.523Z,50.79
2022-09-24T14:20:32.431Z,50.76
2022-09-24T14:25:32.337Z,51.36
2022-09-24T14:30:32.291Z,52.06
2022-09-24T14:35:32.206Z,52.64
2022-09-24T14:40:32.158Z,53.03
2022-09-24T14:45:32.181Z,53.31
2022-09-24T14:51:17.975Z,53.53
2022-09-24T14:56:17.952Z,53.72
2022-09-24T15:01:17.926Z,53.92
2022-09-24T15:06:17.792Z,54.23
2022-09-24T15:11:17.710Z,54.63
2022-09-24T15:16:17.674Z,55.08
2022-09-24T15:21:17.620Z,55.44
2022-09-24T15:26:17.508Z,55.63
2022-09-24T15:31:18.786Z,55.94
2022-09-24T15:36:17.417Z,56.32
2022-09-24T15:41:17.290Z,56.70
2022-09-24T15:46:17.271Z,57.04
2022-09-24T15:51:17.169Z,57.34
2022-09-24T15:56:17.089Z,57.62
2022-09-24T16:01:17.163Z,57.85
2022-09-24T16:06:16.965Z,58.02
2022-09-24T16:11:16.892Z,58.03
2022-09-24T16:16:16.923Z,58.08
2022-09-24T16:21:16.747Z,58.15
2022-09-24T16:26:16.743Z,58.26
2022-09-24T16:31:16.646Z,58.39
2022-09-24T16:36:16.589Z,58.63
2022-09-24T16:41:16.482Z,58.84
2022-09-24T16:46:20.443Z,59.06
2022-09-24T16:51:16.842Z,59.24
2022-09-24T16:56:16.323Z,59.39
2022-09-24T17:01:16.320Z,59.58
2022-09-24T17:06:16.207Z,59.73
2022-09-24T17:11:16.107Z,59.89
2022-09-24T17:16:16.081Z,60.08
2022-09-24T17:21:15.943Z,60.31
2022-09-24T17:26:15.880Z,60.48
2022-09-24T17:31:15.879Z,60.62
2022-09-24T17:36:15.753Z,60.77
2022-09-24T17:41:15.725Z,60.89
2022-09-24T17:46:15.723Z,61.00
2022-09-24T17:51:15.554Z,61.08
2022-09-24T17:56:15.483Z,61.15
2022-09-24T18:01:15.527Z,61.26
2022-09-24T18:06:15.975Z,61.41
2022-09-24T18:11:15.291Z,61.53
2022-09-24T18:16:15.276Z,61.63
2022-09-24T18:21:15.184Z,61.74
2022-09-24T18:26:15.224Z,61.87
2022-09-24T18:31:15.084Z,61.98
2022-09-24T18:36:15.285Z,62.10
2022-09-24T18:41:14.839Z,62.21
2022-09-24T18:46:14.847Z,62.30
2022-09-24T18:51:14.727Z,62.40
2022-09-24T18:56:14.816Z,62.46
2022-09-24T19:01:14.680Z,62.54
2022-09-24T19:06:14.573Z,62.61
2022-09-24T19:11:15.888Z,62.72
2022-09-24T19:16:14.395Z,62.80
2022-09-24T19:21:15.292Z,62.94
2022-09-24T19:26:14.288Z,63.01
2022-09-24T19:31:14.240Z,63.07
2022-09-24T19:36:14.235Z,63.13
2022-09-24T19:41:14.068Z,63.17
2022-09-24T19:46:15.411Z,63.26
2022-09-24T19:51:14.114Z,63.34
2022-09-24T19:56:13.877Z,63.38
2022-09-24T20:01:17.371Z,63.43
2022-09-24T20:06:13.734Z,63.52
2022-09-24T20:11:15.122Z,63.59
2022-09-24T20:16:14.403Z,63.66
2022-09-24T20:21:13.528Z,63.77
2022-09-24T20:26:13.421Z,63.84
2022-09-24T20:31:13.425Z,63.91
2022-09-24T20:36:17.315Z,63.97
2022-09-24T20:41:14.455Z,64.04
2022-09-24T20:46:13.208Z,64.10
2022-09-24T20:51:13.297Z,64.19
2022-09-24T20:56:13.050Z,64.23
2022-09-24T21:01:13.001Z,64.27
2022-09-24T21:06:13.026Z,64.33
2022-09-24T21:11:12.855Z,64.37
2022-09-24T21:16:12.824Z,64.43
2022-09-24T21:21:12.879Z,64.49
2022-09-24T21:26:12.698Z,64.57
2022-09-24T21:31:12.656Z,64.64
2022-09-24T21:36:13.065Z,64.67
2022-09-24T21:41:12.478Z,64.75
2022-09-24T21:46:12.416Z,64.82
2022-09-24T21:51:12.290Z,64.85
2022-09-24T21:56:12.222Z,64.89
2022-09-24T22:01:12.233Z,64.95
2022-09-24T22:06:12.081Z,65.03
2022-09-24T22:11:12.025Z,65.11
2022-09-24T22:16:11.990Z,65.15
2022-09-24T22:21:11.886Z,65.19
2022-09-24T22:26:11.825Z,65.22
2022-09-24T22:31:11.815Z,65.28
2022-09-24T22:36:11.688Z,65.32
2022-09-24T22:41:11.608Z,65.38
2022-09-24T22:46:11.682Z,65.44
2022-09-24T22:51:11.592Z,65.50
2022-09-24T22:56:11.410Z,65.53
2022-09-24T23:01:11.431Z,65.58
2022-09-24T23:06:11.293Z,65.64
2022-09-24T23:11:11.194Z,65.66
2022-09-24T23:16:11.220Z,65.69
2022-09-24T23:21:12.021Z,65.73
2022-09-24T23:26:15.555Z,65.80
2022-09-24T23:31:12.000Z,65.85
2022-09-24T23:36:10.878Z,65.89
2022-09-24T23:41:10.815Z,65.93
2022-09-24T23:46:10.783Z,65.98
2022-09-24T23:51:10.673Z,66.06
2022-09-24T23:56:10.628Z,66.08
